»·PEaware :: N214B KOXR-KONT

N214B :: KOXR-KONT

FLIGHT INFORMATION

Flight Status: Arrived
Operator: Privately registered:
United States
More flights under this callsign
Pilot: Paul C. (33538)
Aircraft: SOCATA TBM-900
(TBM9)
More flights by this aircraft type
Origin: KOXR Oxnard
United States
Destination: KONT Ontario Intl
United States
More flights between these airports :: More routes between these airports
Route: VTU044 GINNA V326 VNY V186 ITSME V264 POM V197 PDZ
File this flight plan on PilotEdge
Remarks:
Altitude:
(Current/Filed)
7,000ft
Speed:
(Current/Filed)
250kts
Departed: 05-Feb-21 04:18 PM
Arrived: 05-Feb-21 04:54 PM
Distance/Time
Traveled:
6829nm/0:36
Distance/Time
To Go:
Arrived

Flight Plot

Page will automatically refresh every two minutes.


Map Options




Map Legend


Flown Route
Filed Route
Departure Airport
Arrival Airport
Navaid (VOR, NDB)
Fix

Horizontal Profiles

Position Reports

Time Latitude Longitude Heading Altitude Ground
Speed
05-Feb-21 15:56 34.199319 -119.206510 176 45ft 0kts
05-Feb-21 15:57 34.199319 -119.206510 176 45ft 0kts
05-Feb-21 15:58 34.199319 -119.206510 176 45ft 0kts
05-Feb-21 15:59 34.199319 -119.206510 176 45ft 0kts
05-Feb-21 16:00 34.199319 -119.206510 176 45ft 0kts
05-Feb-21 16:01 34.199319 -119.206510 176 45ft 0kts
05-Feb-21 16:02 34.199319 -119.206510 176 45ft 0kts
05-Feb-21 16:03 34.199319 -119.206510 176 45ft 0kts
05-Feb-21 16:04 34.199319 -119.206510 176 45ft 0kts
05-Feb-21 16:05 34.199319 -119.206510 176 45ft 0kts
05-Feb-21 16:06 34.199319 -119.206510 176 45ft 0kts
05-Feb-21 16:07 34.199319 -119.206510 176 45ft 0kts
05-Feb-21 16:08 34.199319 -119.206510 176 45ft 0kts
05-Feb-21 16:09 34.199319 -119.206510 176 45ft 0kts
05-Feb-21 16:10 34.199319 -119.206510 176 45ft 0kts
05-Feb-21 16:11 34.199319 -119.206510 176 45ft 0kts
05-Feb-21 16:12 34.199833 -119.205376 82 48ft 8kts
05-Feb-21 16:13 34.199611 -119.204081 87 47ft 14kts
05-Feb-21 16:14 34.199731 -119.199393 89 44ft 15kts
05-Feb-21 16:15 34.199903 -119.197613 17 44ft 0kts
05-Feb-21 16:16 34.200715 -119.197799 278 43ft 7kts
05-Feb-21 16:17 34.202877 -119.221435 272 904ft 139kts
05-Feb-21 16:18 34.201964 -119.273184 268 3549ft 174kts
05-Feb-21 16:19 34.193099 -119.332054 256 5853ft 175kts
05-Feb-21 16:20 34.229961 -119.338587 68 6945ft 227kts
05-Feb-21 16:21 34.210964 -119.260849 100 6984ft 255kts
05-Feb-21 16:22 34.204625 -119.175001 87 6973ft 256kts
05-Feb-21 16:23 34.207494 -119.089163 87 6977ft 255kts
05-Feb-21 16:24 34.209916 -119.003762 87 6981ft 254kts
05-Feb-21 16:25 34.212327 -118.918473 87 7001ft 253kts
05-Feb-21 16:26 34.214656 -118.833600 87 7009ft 253kts
05-Feb-21 16:27 34.216935 -118.748548 87 7009ft 253kts
05-Feb-21 16:28 34.219135 -118.664231 87 6985ft 252kts
05-Feb-21 16:29 34.221277 -118.579695 87 6982ft 251kts
05-Feb-21 16:31 34.220329 -118.495593 99 6980ft 251kts
05-Feb-21 16:32 34.200119 -118.414826 107 6982ft 252kts
05-Feb-21 16:33 34.176229 -118.335911 109 6991ft 252kts
05-Feb-21 16:34 34.152041 -118.256426 108 6992ft 253kts
05-Feb-21 16:35 34.127816 -118.176978 108 6988ft 253kts
05-Feb-21 16:36 34.103369 -118.097122 108 6992ft 253kts
05-Feb-21 16:37 34.080113 -118.017055 101 7002ft 253kts
05-Feb-21 16:38 34.074744 -117.933265 98 7011ft 253kts
05-Feb-21 16:39 34.058306 -117.850948 102 7023ft 253kts
05-Feb-21 16:40 34.040808 -117.769948 102 7037ft 254kts
05-Feb-21 16:41 34.023194 -117.689541 102 7003ft 234kts
05-Feb-21 16:42 34.006970 -117.615952 102 6999ft 223kts
05-Feb-21 16:43 33.995402 -117.544158 93 6396ft 227kts
05-Feb-21 16:43 33.991538 -117.478659 89 4322ft 226kts
05-Feb-21 16:45 33.992446 -117.396857 87 3014ft 180kts
05-Feb-21 16:46 34.019460 -117.381676 344 2893ft 113kts
05-Feb-21 16:46 34.043424 -117.389315 320 2900ft 109kts
05-Feb-21 16:48 34.054197 -117.431473 276 2915ft 119kts
05-Feb-21 16:48 34.055377 -117.464891 271 2906ft 114kts
05-Feb-21 16:49 34.055522 -117.502552 270 2427ft 121kts
05-Feb-21 16:51 34.055242 -117.538477 268 1431ft 73kts
05-Feb-21 16:51 34.055076 -117.558223 269 1049ft 68kts
05-Feb-21 16:52 34.054952 -117.582709 270 983ft 72kts
05-Feb-21 16:53 34.054009 -117.594787 249 934ft 0kts
05-Feb-21 16:54 34.054009 -117.594787 249 934ft 0kts
05-Feb-21 16:55 34.053845 -117.596634 268 936ft 16kts
05-Feb-21 16:56 34.053871 -117.602988 267 934ft 18kts
05-Feb-21 16:57 34.052709 -117.605030 249 932ft 0kts
05-Feb-21 16:58 0.000408 0.013975 0 3ft 0kts

Navigation Log

Ident Type
Flight plan parsing failed, navigation log unavailable